createdAt,value
2019-05-15T00:00:11.942Z,80.90
2019-05-15T00:02:40.502Z,81.20
2019-05-15T00:05:09.806Z,82.30
2019-05-15T00:07:39.729Z,82.60
2019-05-15T00:10:09.058Z,82.40
2019-05-15T00:12:39.556Z,83.20
2019-05-15T00:15:09.652Z,83.30
2019-05-15T00:17:39.323Z,83.60
2019-05-15T00:20:13.740Z,84.10
2019-05-15T00:22:42.322Z,84.70
2019-05-15T00:25:12.478Z,85.50
2019-05-15T00:27:41.058Z,86.20
2019-05-15T00:30:13.022Z,87.50
2019-05-15T00:32:41.606Z,88.00
2019-05-15T00:35:11.766Z,88.50
2019-05-15T00:37:40.358Z,90.40
2019-05-15T00:40:09.188Z,90.50
2019-05-15T00:42:41.670Z,90.70
2019-05-15T00:45:10.894Z,91.10
2019-05-15T00:47:40.883Z,92.40
2019-05-15T00:50:10.423Z,92.40
2019-05-15T00:52:42.070Z,92.30
2019-05-15T00:58:01.371Z,92.30
2019-05-15T01:00:43.012Z,92.30
2019-05-15T01:03:11.770Z,92.80
2019-05-15T01:05:41.917Z,93.40
2019-05-15T01:08:10.492Z,92.70
2019-05-15T01:10:39.324Z,92.70
2019-05-15T01:13:08.640Z,92.90
2019-05-15T01:15:39.264Z,93.50
2019-05-15T01:18:09.598Z,94.00
2019-05-15T01:20:39.091Z,93.80
2019-05-15T01:23:08.860Z,94.40
2019-05-15T01:25:39.195Z,94.40
2019-05-15T01:28:10.554Z,94.40
2019-05-15T01:30:40.993Z,94.90
2019-05-15T01:33:09.618Z,95.20
2019-05-15T01:35:43.110Z,95.80
2019-05-15T01:38:11.675Z,96.00
2019-05-15T01:40:41.661Z,96.50
2019-05-15T01:43:10.196Z,96.50
2019-05-15T01:45:41.038Z,96.80
2019-05-15T01:48:09.547Z,97.00
2019-05-15T01:50:39.270Z,97.00
2019-05-15T01:53:10.496Z,96.90
2019-05-15T01:55:40.526Z,97.50
2019-05-15T01:58:09.389Z,98.10
2019-05-15T02:00:39.220Z,97.80
2019-05-15T02:03:09.730Z,98.10
2019-05-15T02:05:40.490Z,98.20
2019-05-15T02:08:11.300Z,98.50
2019-05-15T02:10:39.764Z,99.00
2019-05-15T02:13:11.192Z,99.80
2019-05-15T02:15:39.856Z,99.90
2019-05-15T02:18:08.607Z,99.90
2019-05-15T02:20:38.935Z,99.90
2019-05-15T02:23:11.523Z,99.90
2019-05-15T02:25:43.829Z,99.90
2019-05-15T02:28:12.393Z,99.90
2019-05-15T02:30:41.202Z,99.90
2019-05-15T02:33:11.281Z,99.90
2019-05-15T02:35:39.977Z,99.90
2019-05-15T02:38:14.726Z,99.90
2019-05-15T02:40:41.084Z,99.90
2019-05-15T02:43:11.461Z,99.90
2019-05-15T02:45:41.812Z,99.90
2019-05-15T02:48:13.311Z,99.90
2019-05-15T02:50:41.808Z,99.90
2019-05-15T02:53:11.598Z,99.90
2019-05-15T02:55:40.624Z,99.90
2019-05-15T02:58:10.929Z,99.90
2019-05-15T03:00:47.233Z,99.90
2019-05-15T03:03:10.278Z,99.90
2019-05-15T03:05:42.576Z,99.90
2019-05-15T03:08:11.102Z,99.90
2019-05-15T03:10:41.121Z,99.90
2019-05-15T03:13:10.230Z,99.90
2019-05-15T03:15:43.045Z,99.90
2019-05-15T03:18:14.715Z,99.90
2019-05-15T03:20:44.713Z,99.90
2019-05-15T03:23:19.818Z,99.90
2019-05-15T03:25:49.494Z,99.90
2019-05-15T03:28:19.065Z,99.90
2019-05-15T03:31:15.512Z,99.90
2019-05-15T03:33:35.807Z,99.90
2019-05-15T03:36:03.095Z,99.90
2019-05-15T03:38:33.514Z,99.90
2019-05-15T03:41:02.062Z,99.90
2019-05-15T03:43:33.364Z,99.90
2019-05-15T03:46:03.444Z,99.90
2019-05-15T03:48:34.841Z,99.90
2019-05-15T03:51:03.536Z,99.90
2019-05-15T03:53:33.097Z,99.90
2019-05-15T03:56:04.232Z,99.90
2019-05-15T03:58:34.264Z,99.90
2019-05-15T04:01:02.724Z,99.90
2019-05-15T04:03:32.201Z,99.90
2019-05-15T04:06:00.827Z,99.90
2019-05-15T04:08:34.129Z,99.90
2019-05-15T04:11:04.856Z,99.90
2019-05-15T04:13:33.344Z,99.90
2019-05-15T04:16:01.945Z,99.90
2019-05-15T04:18:30.525Z,99.90
2019-05-15T04:21:00.526Z,99.90
2019-05-15T04:23:30.548Z,99.90
2019-05-15T04:25:59.408Z,99.90
2019-05-15T04:28:29.813Z,99.90
2019-05-15T04:30:59.885Z,99.90
2019-05-15T04:33:29.610Z,99.90
2019-05-15T04:35:59.297Z,99.90
2019-05-15T04:38:32.370Z,99.90
2019-05-15T04:41:01.092Z,99.90
2019-05-15T04:46:19.666Z,99.90
2019-05-15T04:48:50.336Z,99.90
2019-05-15T04:51:24.934Z,99.90
2019-05-15T04:53:53.377Z,99.90
2019-05-15T04:56:21.919Z,99.90
2019-05-15T04:58:51.143Z,99.90
2019-05-15T05:01:20.322Z,99.90
2019-05-15T05:03:49.737Z,99.90
2019-05-15T05:06:21.740Z,99.90
2019-05-15T05:08:51.904Z,99.90
2019-05-15T05:11:23.923Z,99.90
2019-05-15T05:13:53.219Z,99.90
2019-05-15T05:16:24.276Z,99.90
2019-05-15T05:18:59.248Z,99.90
2019-05-15T05:21:30.540Z,99.90
2019-05-15T05:23:59.159Z,99.90
2019-05-15T05:26:29.456Z,99.90
2019-05-15T05:29:01.321Z,99.90
2019-05-15T05:31:29.588Z,99.90
2019-05-15T05:33:59.034Z,99.90
2019-05-15T05:36:28.043Z,99.90
2019-05-15T05:38:58.432Z,99.90
2019-05-15T05:41:28.092Z,99.40
2019-05-15T05:44:00.018Z,98.70
2019-05-15T05:46:28.533Z,98.90
2019-05-15T05:48:58.387Z,98.30
2019-05-15T05:51:28.152Z,95.70
2019-05-15T05:53:59.017Z,92.60
2019-05-15T05:56:30.735Z,91.00
2019-05-15T05:58:59.230Z,87.10
2019-05-15T06:01:31.978Z,82.70
2019-05-15T06:04:02.088Z,79.10
2019-05-15T06:06:30.602Z,75.60
2019-05-15T06:09:01.123Z,73.90
2019-05-15T06:11:29.413Z,72.30
2019-05-15T06:13:58.464Z,72.50
2019-05-15T06:16:29.795Z,68.80
2019-05-15T06:19:03.359Z,64.70
2019-05-15T06:21:31.865Z,63.50
2019-05-15T06:24:05.384Z,64.40
2019-05-15T06:26:34.501Z,66.30
2019-05-15T06:29:03.143Z,63.60
2019-05-15T06:31:31.661Z,61.10
2019-05-15T06:34:19.500Z,58.80
2019-05-15T06:36:49.512Z,57.70
2019-05-15T06:39:18.058Z,57.60
2019-05-15T06:41:48.440Z,56.60
2019-05-15T06:44:18.763Z,55.40
2019-05-15T06:46:48.560Z,55.80
2019-05-15T06:49:21.020Z,56.60
2019-05-15T06:51:49.578Z,52.90
2019-05-15T06:54:19.676Z,54.00
2019-05-15T06:56:49.320Z,52.50
2019-05-15T06:59:20.917Z,53.00
2019-05-15T07:01:51.173Z,52.10
2019-05-15T07:04:19.648Z,51.50
2019-05-15T07:06:52.438Z,50.60
2019-05-15T07:09:23.956Z,48.70
2019-05-15T07:11:53.693Z,49.40
2019-05-15T07:14:25.268Z,46.60
2019-05-15T07:16:53.857Z,46.70
2019-05-15T07:19:22.309Z,46.80
2019-05-15T07:21:50.817Z,46.80
2019-05-15T07:24:19.469Z,46.90
2019-05-15T07:26:50.770Z,47.00
2019-05-15T07:29:20.691Z,45.40
2019-05-15T07:31:49.189Z,47.00
2019-05-15T07:34:20.581Z,44.70
2019-05-15T07:36:51.368Z,44.00
2019-05-15T07:39:19.895Z,41.60
2019-05-15T07:41:52.186Z,41.60
2019-05-15T07:44:20.789Z,42.30
2019-05-15T07:46:52.113Z,40.10
2019-05-15T07:49:20.752Z,40.20
2019-05-15T07:51:50.839Z,41.20
2019-05-15T07:54:19.471Z,40.30
2019-05-15T07:56:50.742Z,40.60
2019-05-15T07:59:19.240Z,38.10
2019-05-15T08:01:49.110Z,38.10
2019-05-15T08:04:26.197Z,38.00
2019-05-15T08:06:49.049Z,38.60
2019-05-15T08:09:18.031Z,38.40
2019-05-15T08:11:48.594Z,37.20
2019-05-15T08:14:19.360Z,37.00
2019-05-15T08:16:48.516Z,38.10
2019-05-15T08:19:18.416Z,36.60
2019-05-15T08:21:51.631Z,37.30
2019-05-15T08:24:21.168Z,38.60
2019-05-15T08:26:49.665Z,38.20
2019-05-15T08:29:21.814Z,38.60
2019-05-15T08:31:52.260Z,35.10
2019-05-15T08:34:20.738Z,35.90
2019-05-15T08:36:49.955Z,33.90
2019-05-15T08:39:21.336Z,34.20
2019-05-15T08:41:54.081Z,35.90
2019-05-15T08:44:22.718Z,32.00
2019-05-15T08:46:51.198Z,33.90
2019-05-15T08:49:20.562Z,31.60
2019-05-15T08:51:51.923Z,30.60
2019-05-15T08:54:21.519Z,29.30
2019-05-15T08:56:51.314Z,29.20
2019-05-15T08:59:19.862Z,30.00
2019-05-15T09:01:48.968Z,28.60
2019-05-15T09:04:34.619Z,27.90
2019-05-15T09:07:01.306Z,28.80
2019-05-15T09:09:30.170Z,27.00
2019-05-15T09:12:00.297Z,28.20
2019-05-15T09:14:32.674Z,28.90
2019-05-15T09:17:01.163Z,27.70
2019-05-15T09:19:29.792Z,28.80
2019-05-15T09:21:59.110Z,28.60
2019-05-15T09:24:28.805Z,28.40
2019-05-15T09:26:59.473Z,28.20
2019-05-15T09:29:29.308Z,27.30
2019-05-15T09:32:01.877Z,28.60
2019-05-15T09:34:46.697Z,27.00
2019-05-15T09:37:02.039Z,28.50
2019-05-15T09:39:32.883Z,28.70
2019-05-15T09:42:01.415Z,28.20
2019-05-15T09:44:30.306Z,26.60
2019-05-15T09:47:00.136Z,27.00
2019-05-15T09:49:31.107Z,28.40
2019-05-15T09:51:59.688Z,27.20
2019-05-15T09:54:29.377Z,27.70
2019-05-15T09:56:59.743Z,26.90
2019-05-15T09:59:29.543Z,26.10
2019-05-15T10:01:58.860Z,26.20
2019-05-15T10:04:33.292Z,24.90
2019-05-15T10:07:01.887Z,25.70
2019-05-15T10:09:35.995Z,26.40
2019-05-15T10:12:05.448Z,26.70
2019-05-15T10:14:38.575Z,25.20
2019-05-15T10:17:09.198Z,24.00
2019-05-15T10:19:37.530Z,25.20
2019-05-15T10:22:09.482Z,26.40
2019-05-15T10:24:38.013Z,26.00
2019-05-15T10:27:08.825Z,25.30
2019-05-15T10:29:38.657Z,26.20
2019-05-15T10:32:08.743Z,24.90
2019-05-15T10:34:38.519Z,27.00
2019-05-15T10:37:10.101Z,25.70
2019-05-15T10:39:38.601Z,24.90
2019-05-15T10:42:09.841Z,24.80
2019-05-15T10:44:42.737Z,24.90
2019-05-15T10:47:11.281Z,25.10
2019-05-15T10:49:44.158Z,25.00
2019-05-15T10:52:13.065Z,24.90
2019-05-15T10:54:41.759Z,24.90
2019-05-15T10:57:12.035Z,24.90
2019-05-15T10:59:42.433Z,25.00
2019-05-15T11:02:10.963Z,24.90
2019-05-15T11:04:40.567Z,24.80
2019-05-15T11:07:15.235Z,24.70
2019-05-15T11:09:43.669Z,24.70
2019-05-15T11:12:12.169Z,24.90
2019-05-15T11:14:43.589Z,24.70
2019-05-15T11:17:13.627Z,24.60
2019-05-15T11:19:43.285Z,25.50
2019-05-15T11:22:11.797Z,24.70
2019-05-15T11:24:40.337Z,25.00
2019-05-15T11:27:10.182Z,24.90
2019-05-15T11:29:40.022Z,24.70
2019-05-15T11:32:11.387Z,24.60
2019-05-15T11:34:40.424Z,24.90
2019-05-15T11:37:08.987Z,24.80
2019-05-15T11:39:46.290Z,24.70
2019-05-15T11:42:11.721Z,25.10
2019-05-15T11:44:41.507Z,25.20
2019-05-15T11:47:12.758Z,25.10
2019-05-15T11:49:41.401Z,25.40
2019-05-15T11:52:10.038Z,25.50
2019-05-15T11:54:41.452Z,25.60
2019-05-15T11:57:09.909Z,25.50
2019-05-15T11:59:44.836Z,25.60
2019-05-15T12:02:08.697Z,25.40
2019-05-15T12:04:38.396Z,25.30
2019-05-15T12:07:08.717Z,25.20
2019-05-15T12:09:38.731Z,25.20
2019-05-15T12:12:08.858Z,26.30
2019-05-15T12:14:38.901Z,25.80
2019-05-15T12:17:14.993Z,25.50
2019-05-15T12:19:39.126Z,25.60
2019-05-15T12:22:07.903Z,25.60
2019-05-15T12:24:37.768Z,25.70
2019-05-15T12:27:15.317Z,25.70
2019-05-15T12:29:39.828Z,25.50
2019-05-15T12:34:40.357Z,25.80
2019-05-15T12:37:09.951Z,26.20
2019-05-15T12:39:40.861Z,26.00
2019-05-15T12:59:52.137Z,25.60
2019-05-15T13:02:20.595Z,25.60
2019-05-15T13:04:49.136Z,25.80
2019-05-15T13:07:19.973Z,25.70
2019-05-15T13:09:48.775Z,25.90
2019-05-15T13:12:18.265Z,25.80
2019-05-15T13:14:48.361Z,25.90
2019-05-15T13:17:23.153Z,26.00
2019-05-15T13:19:51.725Z,26.10
2019-05-15T13:22:24.674Z,25.20
2019-05-15T13:24:52.509Z,26.00
2019-05-15T13:27:21.598Z,26.00
2019-05-15T13:29:51.259Z,25.60
2019-05-15T13:32:19.785Z,25.70
2019-05-15T13:34:51.257Z,25.70
2019-05-15T13:37:27.419Z,25.50
2019-05-15T13:39:50.087Z,25.40
2019-05-15T13:42:20.298Z,25.40
2019-05-15T13:44:48.859Z,25.30
2019-05-15T13:47:19.915Z,25.50
2019-05-15T13:49:48.479Z,25.70
2019-05-15T13:52:18.746Z,25.60
2019-05-15T13:54:48.597Z,25.60
2019-05-15T13:57:21.802Z,25.50
2019-05-15T13:59:50.657Z,25.50
2019-05-15T14:02:19.134Z,25.60
2019-05-15T14:04:49.038Z,25.80
2019-05-15T14:07:19.292Z,25.80
2019-05-15T14:09:48.286Z,26.00
2019-05-15T14:12:18.279Z,25.90
2019-05-15T14:14:48.592Z,25.80
2019-05-15T14:17:17.169Z,27.10
2019-05-15T14:19:45.735Z,26.00
2019-05-15T14:22:15.736Z,26.00
2019-05-15T14:24:44.562Z,25.90
2019-05-15T14:27:16.176Z,26.10
2019-05-15T14:29:48.818Z,24.40
2019-05-15T14:32:32.783Z,25.80
2019-05-15T14:34:50.879Z,25.80
2019-05-15T14:37:18.927Z,26.10
2019-05-15T14:39:52.040Z,26.10
2019-05-15T14:42:19.834Z,25.90
2019-05-15T14:44:48.573Z,25.90
2019-05-15T14:47:19.191Z,26.10
2019-05-15T14:49:49.446Z,26.00
2019-05-15T14:52:18.849Z,25.80
2019-05-15T14:54:48.981Z,25.80
2019-05-15T14:57:20.687Z,25.90
2019-05-15T14:59:50.316Z,26.10
2019-05-15T15:02:19.095Z,25.50
2019-05-15T15:04:48.563Z,26.10
2019-05-15T15:07:18.900Z,26.10
2019-05-15T15:09:47.851Z,24.60
2019-05-15T15:12:18.837Z,25.80
2019-05-15T15:14:48.600Z,25.80
2019-05-15T15:17:19.140Z,25.60
2019-05-15T15:19:51.614Z,25.50
2019-05-15T15:22:17.512Z,25.40
2019-05-15T15:24:49.959Z,25.00
2019-05-15T15:27:20.473Z,24.60
2019-05-15T15:29:50.026Z,26.80
2019-05-15T15:32:19.777Z,25.40
2019-05-15T15:34:48.359Z,27.80
2019-05-15T15:37:19.583Z,27.30
2019-05-15T15:39:49.470Z,27.90
2019-05-15T15:42:19.142Z,29.00
2019-05-15T15:47:17.731Z,28.00
2019-05-15T15:49:48.012Z,29.60
2019-05-15T15:52:19.752Z,29.90
2019-05-15T15:54:48.274Z,29.90
2019-05-15T15:57:19.041Z,30.40
2019-05-15T15:59:49.999Z,30.40
2019-05-15T16:02:18.735Z,30.00
2019-05-15T16:04:48.437Z,28.60
2019-05-15T16:07:18.329Z,29.50
2019-05-15T16:09:48.309Z,29.80
2019-05-15T16:12:18.589Z,30.00
2019-05-15T16:14:48.811Z,30.30
2019-05-15T16:17:18.482Z,30.90
2019-05-15T16:19:49.159Z,30.20
2019-05-15T16:22:21.317Z,29.70
2019-05-15T16:24:50.450Z,30.00
2019-05-15T16:27:19.007Z,30.00
2019-05-15T16:29:48.524Z,29.80
2019-05-15T16:32:21.914Z,30.00
2019-05-15T16:34:55.153Z,30.30
2019-05-15T16:37:23.916Z,30.60
2019-05-15T16:39:52.527Z,30.50
2019-05-15T16:42:20.990Z,31.30
2019-05-15T16:44:53.433Z,30.90
2019-05-15T16:47:27.967Z,30.70
2019-05-15T16:49:57.980Z,31.00
2019-05-15T16:52:31.041Z,31.70
2019-05-15T16:54:59.803Z,31.80
2019-05-15T16:57:28.479Z,32.00
2019-05-15T16:59:59.038Z,31.60
2019-05-15T17:02:28.265Z,31.10
2019-05-15T17:04:59.210Z,31.40
2019-05-15T17:07:29.908Z,31.10
2019-05-15T17:09:58.702Z,31.20
2019-05-15T17:12:28.278Z,31.80
2019-05-15T17:14:58.527Z,32.10
2019-05-15T17:17:28.092Z,31.70
2019-05-15T17:19:57.910Z,31.90
2019-05-15T17:22:31.146Z,32.10
2019-05-15T17:24:59.900Z,32.60
2019-05-15T17:27:28.981Z,32.20
2019-05-15T17:29:58.869Z,32.20
2019-05-15T17:32:29.126Z,32.40
2019-05-15T17:34:58.858Z,32.50
2019-05-15T17:37:28.723Z,32.40
2019-05-15T17:39:58.916Z,32.50
2019-05-15T17:42:28.948Z,32.60
2019-05-15T17:45:01.194Z,33.20
2019-05-15T17:47:29.721Z,33.70
2019-05-15T17:50:01.155Z,33.30
2019-05-15T17:52:29.893Z,33.60
2019-05-15T17:54:59.296Z,33.00
2019-05-15T17:57:28.692Z,33.40
2019-05-15T17:59:59.029Z,33.10
2019-05-15T18:02:28.889Z,33.40
2019-05-15T18:04:59.002Z,33.80
2019-05-15T18:07:28.216Z,34.40
2019-05-15T18:09:59.196Z,35.10
2019-05-15T18:12:33.103Z,35.10
2019-05-15T18:15:02.126Z,35.40
2019-05-15T18:17:30.959Z,35.60
2019-05-15T18:19:59.573Z,35.60
2019-05-15T18:22:28.441Z,35.70
2019-05-15T18:24:58.068Z,35.40
2019-05-15T18:27:30.013Z,35.20
2019-05-15T18:29:59.536Z,35.90
2019-05-15T18:32:28.651Z,36.40
2019-05-15T18:34:59.856Z,36.80
2019-05-15T18:37:31.383Z,36.20
2019-05-15T18:40:06.412Z,36.60
2019-05-15T18:42:34.893Z,36.60
2019-05-15T18:45:05.349Z,37.30
2019-05-15T18:47:33.816Z,37.30
2019-05-15T18:50:08.718Z,37.40
2019-05-15T18:52:35.025Z,37.40
2019-05-15T18:55:08.230Z,37.40
2019-05-15T18:57:39.458Z,38.20
2019-05-15T19:00:09.892Z,38.60
2019-05-15T19:02:39.374Z,39.00
2019-05-15T19:05:09.092Z,38.70
2019-05-15T19:07:41.219Z,39.50
2019-05-15T19:10:11.417Z,39.40
2019-05-15T19:12:42.573Z,39.40
2019-05-15T19:15:13.203Z,39.30
2019-05-15T19:17:41.745Z,39.30
2019-05-15T19:20:11.311Z,39.60
2019-05-15T19:22:40.997Z,39.70
2019-05-15T19:25:10.884Z,39.40
2019-05-15T19:27:39.613Z,39.80
2019-05-15T19:30:10.478Z,40.50
2019-05-15T19:32:40.054Z,40.80
2019-05-15T19:35:10.256Z,41.50
2019-05-15T19:37:40.243Z,41.80
2019-05-15T19:40:10.695Z,43.40
2019-05-15T19:42:39.231Z,42.90
2019-05-15T19:45:08.900Z,43.10
2019-05-15T19:47:40.850Z,44.10
2019-05-15T19:50:10.134Z,45.20
2019-05-15T19:52:40.695Z,45.10
2019-05-15T19:55:09.292Z,45.00
2019-05-15T19:57:38.938Z,45.00
2019-05-15T20:00:11.108Z,44.90
2019-05-15T20:02:40.849Z,44.80
2019-05-15T20:05:12.933Z,44.80
2019-05-15T20:07:41.399Z,44.60
2019-05-15T20:10:12.350Z,45.10
2019-05-15T20:12:41.137Z,46.20
2019-05-15T20:15:11.085Z,46.70
2019-05-15T20:17:39.541Z,47.20
2019-05-15T20:20:09.213Z,48.10
2019-05-15T20:22:40.384Z,48.30
2019-05-15T20:25:08.817Z,49.00
2019-05-15T20:27:39.163Z,50.30
2019-05-15T20:30:08.797Z,50.80
2019-05-15T20:32:40.303Z,50.80
2019-05-15T20:35:09.122Z,51.30
2019-05-15T20:37:58.143Z,51.80
2019-05-15T20:40:42.239Z,51.80
2019-05-15T20:43:14.545Z,51.50
2019-05-15T20:45:43.102Z,51.90
2019-05-15T20:48:13.165Z,51.70
2019-05-15T20:50:41.908Z,52.70
2019-05-15T20:53:13.143Z,52.00
2019-05-15T20:55:41.860Z,52.20
2019-05-15T20:58:10.326Z,52.00
2019-05-15T21:00:41.108Z,52.50
2019-05-15T21:03:09.391Z,52.80
2019-05-15T21:05:38.292Z,51.70
2019-05-15T21:08:09.734Z,51.30
2019-05-15T21:10:42.776Z,51.10
2019-05-15T21:13:10.027Z,51.50
2019-05-15T21:15:38.700Z,51.40
2019-05-15T21:18:14.214Z,50.90
2019-05-15T21:20:39.857Z,51.10
2019-05-15T21:23:09.151Z,50.80
2019-05-15T21:25:39.287Z,52.20
2019-05-15T21:28:08.635Z,52.50
2019-05-15T21:30:37.894Z,52.90
2019-05-15T21:33:08.667Z,51.30
2019-05-15T21:35:39.350Z,51.20
2019-05-15T21:38:11.203Z,51.30
2019-05-15T21:40:41.730Z,51.60
2019-05-15T21:43:11.952Z,51.10
2019-05-15T21:45:40.525Z,50.90
2019-05-15T21:48:09.150Z,50.70
2019-05-15T21:50:38.915Z,51.30
2019-05-15T21:53:12.093Z,50.70
2019-05-15T21:55:43.412Z,50.70
2019-05-15T21:58:13.183Z,50.70
2019-05-15T22:00:45.347Z,51.00
2019-05-15T22:03:14.854Z,51.10
2019-05-15T22:05:43.376Z,51.20
2019-05-15T22:08:11.887Z,51.00
2019-05-15T22:10:41.615Z,51.10
2019-05-15T22:13:10.380Z,51.60
2019-05-15T22:15:41.604Z,51.70
2019-05-15T22:18:11.574Z,51.50
2019-05-15T22:20:40.490Z,51.50
2019-05-15T22:23:11.974Z,51.90
2019-05-15T22:25:41.505Z,52.10
2019-05-15T22:28:11.493Z,53.70
2019-05-15T22:33:28.250Z,52.90
2019-05-15T22:36:03.862Z,53.10
2019-05-15T22:38:36.754Z,53.40
2019-05-15T22:41:05.302Z,54.40
2019-05-15T22:43:34.914Z,54.60
2019-05-15T22:46:03.464Z,56.00
2019-05-15T22:48:34.766Z,56.10
2019-05-15T22:51:06.469Z,54.90
2019-05-15T22:53:35.076Z,54.80
2019-05-15T22:56:03.615Z,55.30
2019-05-15T22:58:33.792Z,55.40
2019-05-15T23:01:08.889Z,55.90
2019-05-15T23:03:39.579Z,56.20
2019-05-15T23:06:09.741Z,56.30
2019-05-15T23:08:39.456Z,57.10
2019-05-15T23:11:11.356Z,57.40
2019-05-15T23:13:40.012Z,57.50
2019-05-15T23:16:08.550Z,57.80
2019-05-15T23:18:38.006Z,58.30
2019-05-15T23:21:08.710Z,59.30
2019-05-15T23:23:39.981Z,59.80
2019-05-15T23:26:10.538Z,60.70
2019-05-15T23:28:40.266Z,61.30
2019-05-15T23:31:10.396Z,61.70
2019-05-15T23:33:41.532Z,61.90
2019-05-15T23:36:13.147Z,63.10
2019-05-15T23:38:48.023Z,63.60
2019-05-15T23:41:19.076Z,63.90
2019-05-15T23:43:48.427Z,64.50
2019-05-15T23:46:20.071Z,65.50
2019-05-15T23:48:48.774Z,66.70
2019-05-15T23:51:20.016Z,66.60
2019-05-15T23:53:48.730Z,67.50
2019-05-15T23:56:19.286Z,67.80
2019-05-15T23:58:53.754Z,68.70
